sensor_id;sensor_type;location;lat;lon;timestamp;P1;durP1;ratioP1;P2;durP2;ratioP2
3949;SDS011;53057;50.988;6.314;2022-07-01T00:01:38;39.87;;;18.80;;
3949;SDS011;53057;50.988;6.314;2022-07-01T00:04:08;47.20;;;20.00;;
3949;SDS011;53057;50.988;6.314;2022-07-01T00:06:36;41.90;;;19.23;;
3949;SDS011;53057;50.988;6.314;2022-07-01T00:09:03;41.67;;;20.83;;
3949;SDS011;53057;50.988;6.314;2022-07-01T00:11:31;46.47;;;20.90;;
3949;SDS011;53057;50.988;6.314;2022-07-01T00:13:58;44.90;;;20.77;;
3949;SDS011;53057;50.988;6.314;2022-07-01T00:16:25;46.17;;;21.23;;
3949;SDS011;53057;50.988;6.314;2022-07-01T00:18:51;45.70;;;19.93;;
3949;SDS011;53057;50.988;6.314;2022-07-01T00:21:18;51.23;;;23.63;;
3949;SDS011;53057;50.988;6.314;2022-07-01T00:23:45;51.87;;;23.87;;
3949;SDS011;53057;50.988;6.314;2022-07-01T00:26:11;41.00;;;21.90;;
3949;SDS011;53057;50.988;6.314;2022-07-01T00:28:38;49.70;;;21.47;;
3949;SDS011;53057;50.988;6.314;2022-07-01T00:31:05;45.67;;;21.40;;
3949;SDS011;53057;50.988;6.314;2022-07-01T00:33:32;52.37;;;22.53;;
3949;SDS011;53057;50.988;6.314;2022-07-01T00:35:59;54.20;;;22.20;;
3949;SDS011;53057;50.988;6.314;2022-07-01T00:38:25;48.50;;;20.93;;
3949;SDS011;53057;50.988;6.314;2022-07-01T00:40:52;49.73;;;23.73;;
3949;SDS011;53057;50.988;6.314;2022-07-01T00:43:20;43.90;;;22.13;;
3949;SDS011;53057;50.988;6.314;2022-07-01T00:46:09;58.37;;;21.87;;
3949;SDS011;53057;50.988;6.314;2022-07-01T00:48:36;56.30;;;24.30;;
3949;SDS011;53057;50.988;6.314;2022-07-01T00:51:03;54.27;;;22.97;;
3949;SDS011;53057;50.988;6.314;2022-07-01T00:53:30;48.63;;;25.30;;
3949;SDS011;53057;50.988;6.314;2022-07-01T00:55:56;58.03;;;23.90;;
3949;SDS011;53057;50.988;6.314;2022-07-01T00:58:25;51.97;;;25.00;;
3949;SDS011;53057;50.988;6.314;2022-07-01T01:00:52;59.23;;;23.17;;
3949;SDS011;53057;50.988;6.314;2022-07-01T01:03:18;58.93;;;23.97;;
3949;SDS011;53057;50.988;6.314;2022-07-01T01:05:45;45.90;;;20.10;;
3949;SDS011;53057;50.988;6.314;2022-07-01T01:08:12;47.40;;;21.00;;
3949;SDS011;53057;50.988;6.314;2022-07-01T01:10:39;46.73;;;18.90;;
3949;SDS011;53057;50.988;6.314;2022-07-01T01:13:06;37.30;;;19.27;;
3949;SDS011;53057;50.988;6.314;2022-07-01T01:15:32;35.40;;;18.13;;
3949;SDS011;53057;50.988;6.314;2022-07-01T01:17:59;34.60;;;17.13;;
3949;SDS011;53057;50.988;6.314;2022-07-01T01:20:26;36.70;;;16.40;;
3949;SDS011;53057;50.988;6.314;2022-07-01T01:22:52;37.87;;;16.60;;
3949;SDS011;53057;50.988;6.314;2022-07-01T01:25:19;35.73;;;16.60;;
3949;SDS011;53057;50.988;6.314;2022-07-01T01:27:46;25.60;;;13.10;;
3949;SDS011;53057;50.988;6.314;2022-07-01T01:30:13;19.63;;;12.10;;
3949;SDS011;53057;50.988;6.314;2022-07-01T01:32:39;18.83;;;10.80;;
3949;SDS011;53057;50.988;6.314;2022-07-01T01:35:10;17.87;;;11.43;;
3949;SDS011;53057;50.988;6.314;2022-07-01T01:37:37;23.20;;;11.23;;
3949;SDS011;53057;50.988;6.314;2022-07-01T01:40:04;18.80;;;10.40;;
3949;SDS011;53057;50.988;6.314;2022-07-01T01:42:31;24.30;;;11.00;;
3949;SDS011;53057;50.988;6.314;2022-07-01T01:44:57;22.43;;;10.10;;
3949;SDS011;53057;50.988;6.314;2022-07-01T01:47:24;14.03;;;9.70;;
3949;SDS011;53057;50.988;6.314;2022-07-01T01:49:51;31.10;;;11.20;;
3949;SDS011;53057;50.988;6.314;2022-07-01T01:52:18;16.23;;;9.27;;
3949;SDS011;53057;50.988;6.314;2022-07-01T01:54:45;13.43;;;8.73;;
3949;SDS011;53057;50.988;6.314;2022-07-01T01:57:13;11.60;;;7.00;;
3949;SDS011;53057;50.988;6.314;2022-07-01T01:59:40;15.60;;;8.13;;
3949;SDS011;53057;50.988;6.314;2022-07-01T02:02:06;9.00;;;6.67;;
3949;SDS011;53057;50.988;6.314;2022-07-01T02:04:33;12.10;;;7.40;;
3949;SDS011;53057;50.988;6.314;2022-07-01T02:07:00;10.67;;;7.40;;
3949;SDS011;53057;50.988;6.314;2022-07-01T02:09:27;15.47;;;7.50;;
3949;SDS011;53057;50.988;6.314;2022-07-01T02:11:55;10.13;;;7.33;;
3949;SDS011;53057;50.988;6.314;2022-07-01T02:14:22;16.57;;;8.50;;
3949;SDS011;53057;50.988;6.314;2022-07-01T02:16:48;8.90;;;8.00;;
3949;SDS011;53057;50.988;6.314;2022-07-01T02:19:15;8.70;;;6.90;;
3949;SDS011;53057;50.988;6.314;2022-07-01T02:21:42;11.30;;;7.50;;
3949;SDS011;53057;50.988;6.314;2022-07-01T02:24:09;19.97;;;8.90;;
3949;SDS011;53057;50.988;6.314;2022-07-01T02:26:36;10.83;;;8.43;;
3949;SDS011;53057;50.988;6.314;2022-07-01T02:29:03;15.97;;;8.77;;
3949;SDS011;53057;50.988;6.314;2022-07-01T02:31:30;22.67;;;11.10;;
3949;SDS011;53057;50.988;6.314;2022-07-01T02:33:57;11.70;;;8.77;;
3949;SDS011;53057;50.988;6.314;2022-07-01T02:36:24;12.83;;;7.93;;
3949;SDS011;53057;50.988;6.314;2022-07-01T02:38:50;17.70;;;8.43;;
3949;SDS011;53057;50.988;6.314;2022-07-01T02:41:17;15.20;;;8.43;;
3949;SDS011;53057;50.988;6.314;2022-07-01T02:43:44;14.67;;;8.90;;
3949;SDS011;53057;50.988;6.314;2022-07-01T02:46:11;18.83;;;9.37;;
3949;SDS011;53057;50.988;6.314;2022-07-01T02:48:38;18.60;;;7.57;;
3949;SDS011;53057;50.988;6.314;2022-07-01T02:51:04;14.73;;;7.50;;
3949;SDS011;53057;50.988;6.314;2022-07-01T02:53:31;11.77;;;6.83;;
3949;SDS011;53057;50.988;6.314;2022-07-01T02:55:58;9.63;;;7.63;;
3949;SDS011;53057;50.988;6.314;2022-07-01T02:58:25;21.17;;;8.13;;
3949;SDS011;53057;50.988;6.314;2022-07-01T03:00:52;20.50;;;8.30;;
3949;SDS011;53057;50.988;6.314;2022-07-01T03:03:19;12.07;;;8.30;;
3949;SDS011;53057;50.988;6.314;2022-07-01T03:05:47;14.60;;;7.03;;
3949;SDS011;53057;50.988;6.314;2022-07-01T03:08:15;13.90;;;8.63;;
3949;SDS011;53057;50.988;6.314;2022-07-01T03:10:42;21.20;;;8.97;;
3949;SDS011;53057;50.988;6.314;2022-07-01T03:13:09;28.70;;;10.00;;
3949;SDS011;53057;50.988;6.314;2022-07-01T03:15:36;10.83;;;8.33;;
3949;SDS011;53057;50.988;6.314;2022-07-01T03:18:03;17.93;;;8.50;;
3949;SDS011;53057;50.988;6.314;2022-07-01T03:20:29;17.10;;;8.27;;
3949;SDS011;53057;50.988;6.314;2022-07-01T03:22:56;21.33;;;9.47;;
3949;SDS011;53057;50.988;6.314;2022-07-01T03:25:23;12.73;;;8.20;;
3949;SDS011;53057;50.988;6.314;2022-07-01T03:27:50;15.37;;;8.10;;
3949;SDS011;53057;50.988;6.314;2022-07-01T03:30:17;11.73;;;8.73;;
3949;SDS011;53057;50.988;6.314;2022-07-01T03:32:45;17.53;;;8.30;;
3949;SDS011;53057;50.988;6.314;2022-07-01T03:35:11;11.20;;;7.43;;
3949;SDS011;53057;50.988;6.314;2022-07-01T03:37:57;31.73;;;9.47;;
3949;SDS011;53057;50.988;6.314;2022-07-01T03:40:24;15.27;;;9.50;;
3949;SDS011;53057;50.988;6.314;2022-07-01T03:42:51;11.70;;;9.00;;
3949;SDS011;53057;50.988;6.314;2022-07-01T03:45:17;19.00;;;9.17;;
3949;SDS011;53057;50.988;6.314;2022-07-01T03:47:45;11.63;;;8.53;;
3949;SDS011;53057;50.988;6.314;2022-07-01T03:50:12;11.43;;;9.23;;
3949;SDS011;53057;50.988;6.314;2022-07-01T03:52:39;11.53;;;7.97;;
3949;SDS011;53057;50.988;6.314;2022-07-01T03:55:09;12.90;;;8.27;;
3949;SDS011;53057;50.988;6.314;2022-07-01T03:57:36;9.10;;;6.80;;
3949;SDS011;53057;50.988;6.314;2022-07-01T04:00:04;15.43;;;8.33;;
3949;SDS011;53057;50.988;6.314;2022-07-01T04:02:31;12.30;;;8.20;;
3949;SDS011;53057;50.988;6.314;2022-07-01T04:04:58;14.40;;;7.07;;
3949;SDS011;53057;50.988;6.314;2022-07-01T04:07:25;10.57;;;8.00;;
3949;SDS011;53057;50.988;6.314;2022-07-01T04:09:52;9.17;;;7.07;;
3949;SDS011;53057;50.988;6.314;2022-07-01T04:12:19;14.83;;;6.37;;
3949;SDS011;53057;50.988;6.314;2022-07-01T04:14:46;13.57;;;6.33;;
3949;SDS011;53057;50.988;6.314;2022-07-01T04:17:12;11.47;;;7.00;;
3949;SDS011;53057;50.988;6.314;2022-07-01T04:19:39;18.20;;;7.67;;
3949;SDS011;53057;50.988;6.314;2022-07-01T04:22:06;16.50;;;7.17;;
3949;SDS011;53057;50.988;6.314;2022-07-01T04:24:51;7.70;;;6.07;;
3949;SDS011;53057;50.988;6.314;2022-07-01T04:27:18;15.83;;;7.73;;
3949;SDS011;53057;50.988;6.314;2022-07-01T04:29:45;11.60;;;6.13;;
3949;SDS011;53057;50.988;6.314;2022-07-01T04:32:11;18.37;;;7.33;;
3949;SDS011;53057;50.988;6.314;2022-07-01T04:34:38;14.17;;;6.63;;
3949;SDS011;53057;50.988;6.314;2022-07-01T04:37:06;15.80;;;7.37;;
3949;SDS011;53057;50.988;6.314;2022-07-01T04:39:32;11.50;;;6.67;;
3949;SDS011;53057;50.988;6.314;2022-07-01T04:41:59;8.70;;;7.07;;
3949;SDS011;53057;50.988;6.314;2022-07-01T04:46:53;12.20;;;7.20;;
3949;SDS011;53057;50.988;6.314;2022-07-01T04:49:20;7.53;;;6.40;;
3949;SDS011;53057;50.988;6.314;2022-07-01T04:51:47;11.83;;;7.93;;
3949;SDS011;53057;50.988;6.314;2022-07-01T04:54:15;10.47;;;7.33;;
3949;SDS011;53057;50.988;6.314;2022-07-01T04:56:41;10.83;;;7.10;;
3949;SDS011;53057;50.988;6.314;2022-07-01T04:59:13;9.00;;;6.10;;
3949;SDS011;53057;50.988;6.314;2022-07-01T05:01:43;12.60;;;6.80;;
3949;SDS011;53057;50.988;6.314;2022-07-01T05:04:10;12.10;;;7.70;;
3949;SDS011;53057;50.988;6.314;2022-07-01T05:06:38;13.83;;;7.77;;
3949;SDS011;53057;50.988;6.314;2022-07-01T05:09:04;10.10;;;6.53;;
3949;SDS011;53057;50.988;6.314;2022-07-01T05:11:31;12.13;;;7.10;;
3949;SDS011;53057;50.988;6.314;2022-07-01T05:13:58;10.83;;;6.10;;
3949;SDS011;53057;50.988;6.314;2022-07-01T05:16:25;14.10;;;6.33;;
3949;SDS011;53057;50.988;6.314;2022-07-01T05:18:52;8.87;;;6.00;;
3949;SDS011;53057;50.988;6.314;2022-07-01T05:21:37;19.17;;;6.73;;
3949;SDS011;53057;50.988;6.314;2022-07-01T05:24:30;7.10;;;5.67;;
3949;SDS011;53057;50.988;6.314;2022-07-01T05:26:58;7.23;;;6.00;;
3949;SDS011;53057;50.988;6.314;2022-07-01T05:29:25;8.53;;;5.57;;
3949;SDS011;53057;50.988;6.314;2022-07-01T05:31:52;5.60;;;5.00;;
3949;SDS011;53057;50.988;6.314;2022-07-01T05:34:19;11.47;;;6.30;;
3949;SDS011;53057;50.988;6.314;2022-07-01T05:36:46;14.13;;;6.60;;
3949;SDS011;53057;50.988;6.314;2022-07-01T05:39:13;10.70;;;5.73;;
3949;SDS011;53057;50.988;6.314;2022-07-01T05:41:45;9.17;;;6.23;;
3949;SDS011;53057;50.988;6.314;2022-07-01T05:44:12;13.70;;;6.50;;
3949;SDS011;53057;50.988;6.314;2022-07-01T05:46:39;11.30;;;7.37;;
3949;SDS011;53057;50.988;6.314;2022-07-01T07:04:14;6.00;;;5.40;;
3949;SDS011;53057;50.988;6.314;2022-07-01T07:06:40;6.53;;;5.90;;
3949;SDS011;53057;50.988;6.314;2022-07-01T07:09:15;7.07;;;5.20;;
3949;SDS011;53057;50.988;6.314;2022-07-01T07:11:42;5.67;;;4.73;;
3949;SDS011;53057;50.988;6.314;2022-07-01T07:14:09;17.03;;;5.43;;
3949;SDS011;53057;50.988;6.314;2022-07-01T07:16:37;10.10;;;6.00;;
3949;SDS011;53057;50.988;6.314;2022-07-01T07:19:04;7.17;;;4.93;;
3949;SDS011;53057;50.988;6.314;2022-07-01T07:21:34;8.47;;;4.67;;
3949;SDS011;53057;50.988;6.314;2022-07-01T07:24:01;9.87;;;4.47;;
3949;SDS011;53057;50.988;6.314;2022-07-01T07:26:39;6.90;;;5.07;;
3949;SDS011;53057;50.988;6.314;2022-07-01T07:29:41;10.47;;;5.00;;
3949;SDS011;53057;50.988;6.314;2022-07-01T07:32:12;8.10;;;4.13;;
3949;SDS011;53057;50.988;6.314;2022-07-01T07:34:51;12.67;;;4.83;;
3949;SDS011;53057;50.988;6.314;2022-07-01T07:37:27;14.57;;;4.63;;
3949;SDS011;53057;50.988;6.314;2022-07-01T07:40:01;9.50;;;3.60;;
3949;SDS011;53057;50.988;6.314;2022-07-01T07:42:36;7.30;;;3.67;;
3949;SDS011;53057;50.988;6.314;2022-07-01T07:45:25;10.07;;;3.83;;
3949;SDS011;53057;50.988;6.314;2022-07-01T07:47:53;10.40;;;3.00;;
3949;SDS011;53057;50.988;6.314;2022-07-01T07:50:23;8.20;;;2.87;;
3949;SDS011;53057;50.988;6.314;2022-07-01T07:53:01;3.37;;;2.90;;
3949;SDS011;53057;50.988;6.314;2022-07-01T08:02:26;6.03;;;3.10;;
3949;SDS011;53057;50.988;6.314;2022-07-01T08:04:54;4.57;;;2.63;;
3949;SDS011;53057;50.988;6.314;2022-07-01T08:08:05;12.57;;;4.07;;
3949;SDS011;53057;50.988;6.314;2022-07-01T08:14:32;6.57;;;3.13;;
3949;SDS011;53057;50.988;6.314;2022-07-01T08:18:20;3.97;;;3.00;;
3949;SDS011;53057;50.988;6.314;2022-07-01T08:20:47;7.80;;;3.40;;
3949;SDS011;53057;50.988;6.314;2022-07-01T08:23:17;5.30;;;2.70;;
3949;SDS011;53057;50.988;6.314;2022-07-01T08:25:44;6.50;;;3.67;;
3949;SDS011;53057;50.988;6.314;2022-07-01T08:28:11;4.67;;;2.50;;
3949;SDS011;53057;50.988;6.314;2022-07-01T08:30:38;9.40;;;3.00;;
3949;SDS011;53057;50.988;6.314;2022-07-01T08:33:05;4.90;;;3.07;;
3949;SDS011;53057;50.988;6.314;2022-07-01T08:35:32;5.10;;;2.83;;
3949;SDS011;53057;50.988;6.314;2022-07-01T08:40:52;6.70;;;3.30;;
3949;SDS011;53057;50.988;6.314;2022-07-01T08:43:24;5.17;;;3.10;;
3949;SDS011;53057;50.988;6.314;2022-07-01T08:45:51;6.43;;;2.63;;
3949;SDS011;53057;50.988;6.314;2022-07-01T08:48:18;5.23;;;2.60;;
3949;SDS011;53057;50.988;6.314;2022-07-01T08:50:45;10.97;;;3.13;;
3949;SDS011;53057;50.988;6.314;2022-07-01T08:53:13;2.00;;;1.80;;
3949;SDS011;53057;50.988;6.314;2022-07-01T08:55:40;10.47;;;2.13;;
3949;SDS011;53057;50.988;6.314;2022-07-01T08:58:26;5.33;;;2.00;;
3949;SDS011;53057;50.988;6.314;2022-07-01T09:00:53;4.87;;;1.80;;
3949;SDS011;53057;50.988;6.314;2022-07-01T09:03:38;1.90;;;1.10;;
3949;SDS011;53057;50.988;6.314;2022-07-01T09:06:10;3.73;;;1.07;;
3949;SDS011;53057;50.988;6.314;2022-07-01T09:08:37;5.63;;;1.20;;
3949;SDS011;53057;50.988;6.314;2022-07-01T09:11:11;4.43;;;1.70;;
3949;SDS011;53057;50.988;6.314;2022-07-01T09:13:38;3.37;;;1.40;;
3949;SDS011;53057;50.988;6.314;2022-07-01T09:16:12;3.00;;;1.00;;
3949;SDS011;53057;50.988;6.314;2022-07-01T09:18:39;1.03;;;0.80;;
3949;SDS011;53057;50.988;6.314;2022-07-01T09:21:07;2.83;;;0.80;;
3949;SDS011;53057;50.988;6.314;2022-07-01T09:23:34;5.20;;;1.30;;
3949;SDS011;53057;50.988;6.314;2022-07-01T09:26:01;4.50;;;1.13;;
3949;SDS011;53057;50.988;6.314;2022-07-01T09:28:28;3.43;;;1.00;;
3949;SDS011;53057;50.988;6.314;2022-07-01T09:30:56;1.90;;;1.17;;
3949;SDS011;53057;50.988;6.314;2022-07-01T09:33:24;2.40;;;1.17;;
3949;SDS011;53057;50.988;6.314;2022-07-01T09:35:52;4.00;;;1.27;;
3949;SDS011;53057;50.988;6.314;2022-07-01T09:38:20;2.90;;;1.43;;
3949;SDS011;53057;50.988;6.314;2022-07-01T09:40:59;1.77;;;1.13;;
3949;SDS011;53057;50.988;6.314;2022-07-01T09:43:27;2.43;;;1.10;;
3949;SDS011;53057;50.988;6.314;2022-07-01T09:48:21;6.43;;;0.93;;
3949;SDS011;53057;50.988;6.314;2022-07-01T09:50:49;6.20;;;1.20;;
3949;SDS011;53057;50.988;6.314;2022-07-01T09:53:16;1.20;;;1.10;;
3949;SDS011;53057;50.988;6.314;2022-07-01T09:55:43;4.07;;;1.17;;
3949;SDS011;53057;50.988;6.314;2022-07-01T09:58:09;2.13;;;0.90;;
3949;SDS011;53057;50.988;6.314;2022-07-01T10:00:37;1.73;;;0.97;;
3949;SDS011;53057;50.988;6.314;2022-07-01T10:03:04;4.70;;;0.90;;
3949;SDS011;53057;50.988;6.314;2022-07-01T10:05:54;1.87;;;1.20;;
3949;SDS011;53057;50.988;6.314;2022-07-01T10:13:52;4.10;;;1.13;;
3949;SDS011;53057;50.988;6.314;2022-07-01T10:16:19;3.03;;;0.90;;
3949;SDS011;53057;50.988;6.314;2022-07-01T10:18:46;14.07;;;1.53;;
3949;SDS011;53057;50.988;6.314;2022-07-01T10:21:28;5.17;;;1.03;;
3949;SDS011;53057;50.988;6.314;2022-07-01T10:24:15;2.83;;;0.70;;
3949;SDS011;53057;50.988;6.314;2022-07-01T10:26:42;4.20;;;1.10;;
3949;SDS011;53057;50.988;6.314;2022-07-01T10:29:52;2.63;;;0.80;;
3949;SDS011;53057;50.988;6.314;2022-07-01T10:32:07;3.33;;;0.70;;
3949;SDS011;53057;50.988;6.314;2022-07-01T10:34:35;1.93;;;0.83;;
3949;SDS011;53057;50.988;6.314;2022-07-01T10:37:04;1.20;;;0.73;;
3949;SDS011;53057;50.988;6.314;2022-07-01T10:42:18;3.07;;;1.33;;
3949;SDS011;53057;50.988;6.314;2022-07-01T10:47:31;2.57;;;1.00;;
3949;SDS011;53057;50.988;6.314;2022-07-01T10:49:59;1.80;;;0.73;;
3949;SDS011;53057;50.988;6.314;2022-07-01T10:52:26;1.43;;;1.00;;
3949;SDS011;53057;50.988;6.314;2022-07-01T10:54:54;0.70;;;0.70;;
3949;SDS011;53057;50.988;6.314;2022-07-01T10:59:50;5.73;;;0.90;;
3949;SDS011;53057;50.988;6.314;2022-07-01T11:02:18;6.73;;;1.10;;
3949;SDS011;53057;50.988;6.314;2022-07-01T11:04:49;5.97;;;1.00;;
3949;SDS011;53057;50.988;6.314;2022-07-01T11:07:16;1.20;;;0.80;;
3949;SDS011;53057;50.988;6.314;2022-07-01T11:09:43;2.47;;;0.87;;
3949;SDS011;53057;50.988;6.314;2022-07-01T11:12:10;7.10;;;1.17;;
3949;SDS011;53057;50.988;6.314;2022-07-01T11:14:38;2.50;;;1.30;;
3949;SDS011;53057;50.988;6.314;2022-07-01T11:17:07;2.80;;;0.80;;
3949;SDS011;53057;50.988;6.314;2022-07-01T11:19:35;1.37;;;0.70;;
3949;SDS011;53057;50.988;6.314;2022-07-01T11:22:03;5.50;;;1.70;;
3949;SDS011;53057;50.988;6.314;2022-07-01T11:24:32;1.23;;;0.80;;
3949;SDS011;53057;50.988;6.314;2022-07-01T11:26:59;1.67;;;0.70;;
3949;SDS011;53057;50.988;6.314;2022-07-01T11:29:31;2.13;;;0.97;;
3949;SDS011;53057;50.988;6.314;2022-07-01T11:31:58;2.87;;;1.00;;
3949;SDS011;53057;50.988;6.314;2022-07-01T11:34:28;1.40;;;1.00;;
3949;SDS011;53057;50.988;6.314;2022-07-01T11:36:58;3.70;;;1.73;;
3949;SDS011;53057;50.988;6.314;2022-07-01T11:39:46;1.63;;;0.60;;
3949;SDS011;53057;50.988;6.314;2022-07-01T11:42:14;3.73;;;0.60;;
3949;SDS011;53057;50.988;6.314;2022-07-01T11:44:41;3.43;;;0.80;;
3949;SDS011;53057;50.988;6.314;2022-07-01T11:47:10;4.70;;;1.17;;
3949;SDS011;53057;50.988;6.314;2022-07-01T11:49:44;0.90;;;0.80;;
3949;SDS011;53057;50.988;6.314;2022-07-01T11:52:12;2.37;;;0.73;;
3949;SDS011;53057;50.988;6.314;2022-07-01T11:54:40;2.30;;;1.10;;
3949;SDS011;53057;50.988;6.314;2022-07-01T11:59:38;4.10;;;1.30;;
3949;SDS011;53057;50.988;6.314;2022-07-01T12:02:07;3.67;;;0.93;;
3949;SDS011;53057;50.988;6.314;2022-07-01T12:04:34;2.07;;;0.97;;
3949;SDS011;53057;50.988;6.314;2022-07-01T12:07:01;2.70;;;0.63;;
3949;SDS011;53057;50.988;6.314;2022-07-01T12:09:28;3.53;;;1.00;;
3949;SDS011;53057;50.988;6.314;2022-07-01T12:11:55;2.10;;;0.90;;
3949;SDS011;53057;50.988;6.314;2022-07-01T12:14:34;1.67;;;0.73;;
3949;SDS011;53057;50.988;6.314;2022-07-01T12:17:03;3.17;;;0.90;;
3949;SDS011;53057;50.988;6.314;2022-07-01T12:19:39;2.00;;;1.10;;
3949;SDS011;53057;50.988;6.314;2022-07-01T12:22:08;6.20;;;1.17;;
3949;SDS011;53057;50.988;6.314;2022-07-01T12:24:35;5.53;;;0.90;;
3949;SDS011;53057;50.988;6.314;2022-07-01T12:27:03;2.00;;;0.73;;
3949;SDS011;53057;50.988;6.314;2022-07-01T12:32:21;3.07;;;0.90;;
3949;SDS011;53057;50.988;6.314;2022-07-01T12:34:51;4.47;;;0.80;;
3949;SDS011;53057;50.988;6.314;2022-07-01T12:37:37;6.13;;;0.80;;
3949;SDS011;53057;50.988;6.314;2022-07-01T12:40:22;8.23;;;1.27;;
3949;SDS011;53057;50.988;6.314;2022-07-01T12:42:49;3.87;;;0.80;;
3949;SDS011;53057;50.988;6.314;2022-07-01T12:45:17;1.50;;;0.83;;
3949;SDS011;53057;50.988;6.314;2022-07-01T12:47:49;2.40;;;1.30;;
3949;SDS011;53057;50.988;6.314;2022-07-01T12:55:22;1.03;;;0.60;;
3949;SDS011;53057;50.988;6.314;2022-07-01T12:57:50;5.30;;;1.10;;
3949;SDS011;53057;50.988;6.314;2022-07-01T13:00:18;12.37;;;3.27;;
3949;SDS011;53057;50.988;6.314;2022-07-01T13:02:45;4.93;;;0.80;;
3949;SDS011;53057;50.988;6.314;2022-07-01T13:05:12;1.60;;;0.70;;
3949;SDS011;53057;50.988;6.314;2022-07-01T13:07:39;3.37;;;1.10;;
3949;SDS011;53057;50.988;6.314;2022-07-01T13:10:11;1.77;;;0.80;;
3949;SDS011;53057;50.988;6.314;2022-07-01T13:12:38;3.87;;;0.70;;
3949;SDS011;53057;50.988;6.314;2022-07-01T13:15:05;1.30;;;1.00;;
3949;SDS011;53057;50.988;6.314;2022-07-01T13:17:32;1.10;;;1.00;;
3949;SDS011;53057;50.988;6.314;2022-07-01T13:20:04;2.50;;;0.63;;
3949;SDS011;53057;50.988;6.314;2022-07-01T13:22:31;0.97;;;0.70;;
3949;SDS011;53057;50.988;6.314;2022-07-01T13:24:59;5.90;;;1.27;;
3949;SDS011;53057;50.988;6.314;2022-07-01T13:27:28;2.07;;;0.90;;
3949;SDS011;53057;50.988;6.314;2022-07-01T13:29:58;5.03;;;1.20;;
3949;SDS011;53057;50.988;6.314;2022-07-01T13:32:25;2.83;;;1.33;;
3949;SDS011;53057;50.988;6.314;2022-07-01T13:34:52;3.70;;;0.93;;
3949;SDS011;53057;50.988;6.314;2022-07-01T13:37:19;2.53;;;1.13;;
3949;SDS011;53057;50.988;6.314;2022-07-01T13:39:46;1.27;;;0.73;;
3949;SDS011;53057;50.988;6.314;2022-07-01T13:42:13;1.90;;;0.90;;
3949;SDS011;53057;50.988;6.314;2022-07-01T13:44:39;8.20;;;0.77;;
3949;SDS011;53057;50.988;6.314;2022-07-01T13:47:06;1.60;;;0.70;;
3949;SDS011;53057;50.988;6.314;2022-07-01T13:49:42;2.00;;;1.47;;
3949;SDS011;53057;50.988;6.314;2022-07-01T13:52:09;3.77;;;3.03;;
3949;SDS011;53057;50.988;6.314;2022-07-01T13:54:37;2.60;;;0.70;;
3949;SDS011;53057;50.988;6.314;2022-07-01T13:57:04;2.50;;;1.03;;
3949;SDS011;53057;50.988;6.314;2022-07-01T13:59:31;2.53;;;0.80;;
3949;SDS011;53057;50.988;6.314;2022-07-01T14:02:00;2.20;;;1.00;;
3949;SDS011;53057;50.988;6.314;2022-07-01T14:04:27;1.17;;;0.67;;
3949;SDS011;53057;50.988;6.314;2022-07-01T14:06:54;1.80;;;0.70;;
3949;SDS011;53057;50.988;6.314;2022-07-01T14:09:21;1.90;;;0.90;;
3949;SDS011;53057;50.988;6.314;2022-07-01T14:11:50;4.10;;;1.03;;
3949;SDS011;53057;50.988;6.314;2022-07-01T14:14:17;3.00;;;0.80;;
3949;SDS011;53057;50.988;6.314;2022-07-01T14:16:44;1.03;;;1.03;;
3949;SDS011;53057;50.988;6.314;2022-07-01T14:19:11;3.37;;;0.90;;
3949;SDS011;53057;50.988;6.314;2022-07-01T14:21:37;4.57;;;0.87;;
3949;SDS011;53057;50.988;6.314;2022-07-01T14:24:04;6.00;;;0.93;;
3949;SDS011;53057;50.988;6.314;2022-07-01T14:26:31;3.67;;;1.07;;
3949;SDS011;53057;50.988;6.314;2022-07-01T14:28:58;3.40;;;0.87;;
3949;SDS011;53057;50.988;6.314;2022-07-01T14:31:25;1.90;;;0.70;;
3949;SDS011;53057;50.988;6.314;2022-07-01T14:33:52;2.80;;;0.70;;
3949;SDS011;53057;50.988;6.314;2022-07-01T14:36:18;5.90;;;0.70;;
3949;SDS011;53057;50.988;6.314;2022-07-01T14:38:45;8.40;;;0.80;;
3949;SDS011;53057;50.988;6.314;2022-07-01T14:41:12;0.90;;;0.70;;
3949;SDS011;53057;50.988;6.314;2022-07-01T14:43:39;1.03;;;0.63;;
3949;SDS011;53057;50.988;6.314;2022-07-01T14:46:06;1.80;;;1.17;;
3949;SDS011;53057;50.988;6.314;2022-07-01T14:48:35;1.90;;;0.80;;
3949;SDS011;53057;50.988;6.314;2022-07-01T14:51:05;3.73;;;0.70;;
3949;SDS011;53057;50.988;6.314;2022-07-01T14:53:32;2.20;;;1.43;;
3949;SDS011;53057;50.988;6.314;2022-07-01T14:55:59;0.60;;;0.60;;
3949;SDS011;53057;50.988;6.314;2022-07-01T14:58:26;5.80;;;0.70;;
3949;SDS011;53057;50.988;6.314;2022-07-01T15:00:53;3.13;;;0.80;;
3949;SDS011;53057;50.988;6.314;2022-07-01T15:03:20;2.00;;;0.97;;
3949;SDS011;53057;50.988;6.314;2022-07-01T15:05:47;1.80;;;0.80;;
3949;SDS011;53057;50.988;6.314;2022-07-01T15:08:19;2.57;;;0.70;;
3949;SDS011;53057;50.988;6.314;2022-07-01T15:10:46;4.57;;;1.03;;
3949;SDS011;53057;50.988;6.314;2022-07-01T15:13:13;3.90;;;0.70;;
3949;SDS011;53057;50.988;6.314;2022-07-01T15:15:40;0.80;;;0.60;;
3949;SDS011;53057;50.988;6.314;2022-07-01T15:18:07;4.50;;;1.90;;
3949;SDS011;53057;50.988;6.314;2022-07-01T15:20:34;1.33;;;0.60;;
3949;SDS011;53057;50.988;6.314;2022-07-01T15:26:11;5.70;;;0.67;;
3949;SDS011;53057;50.988;6.314;2022-07-01T15:29:22;0.90;;;0.60;;
3949;SDS011;53057;50.988;6.314;2022-07-01T15:31:49;0.70;;;0.70;;
3949;SDS011;53057;50.988;6.314;2022-07-01T15:34:17;2.10;;;1.90;;
3949;SDS011;53057;50.988;6.314;2022-07-01T15:36:47;1.50;;;0.80;;
3949;SDS011;53057;50.988;6.314;2022-07-01T15:39:14;2.50;;;0.70;;
3949;SDS011;53057;50.988;6.314;2022-07-01T15:41:42;3.90;;;0.87;;
3949;SDS011;53057;50.988;6.314;2022-07-01T15:44:08;1.53;;;0.63;;
3949;SDS011;53057;50.988;6.314;2022-07-01T15:46:35;5.40;;;1.50;;
3949;SDS011;53057;50.988;6.314;2022-07-01T15:49:03;1.07;;;0.90;;
3949;SDS011;53057;50.988;6.314;2022-07-01T15:51:29;5.37;;;0.80;;
3949;SDS011;53057;50.988;6.314;2022-07-01T15:54:01;0.83;;;0.80;;
3949;SDS011;53057;50.988;6.314;2022-07-01T15:56:28;1.17;;;0.60;;
3949;SDS011;53057;50.988;6.314;2022-07-01T15:58:55;1.37;;;0.60;;
3949;SDS011;53057;50.988;6.314;2022-07-01T16:01:23;0.70;;;0.57;;
3949;SDS011;53057;50.988;6.314;2022-07-01T16:03:52;1.33;;;0.80;;
3949;SDS011;53057;50.988;6.314;2022-07-01T16:06:20;6.40;;;0.83;;
3949;SDS011;53057;50.988;6.314;2022-07-01T16:08:50;4.03;;;0.80;;
3949;SDS011;53057;50.988;6.314;2022-07-01T16:11:19;1.30;;;0.80;;
3949;SDS011;53057;50.988;6.314;2022-07-01T16:13:55;1.37;;;0.80;;
3949;SDS011;53057;50.988;6.314;2022-07-01T16:16:29;1.00;;;0.90;;
3949;SDS011;53057;50.988;6.314;2022-07-01T16:19:06;0.90;;;0.70;;
3949;SDS011;53057;50.988;6.314;2022-07-01T16:21:35;2.90;;;0.70;;
3949;SDS011;53057;50.988;6.314;2022-07-01T16:24:08;5.60;;;1.20;;
3949;SDS011;53057;50.988;6.314;2022-07-01T16:27:23;1.13;;;0.80;;
3949;SDS011;53057;50.988;6.314;2022-07-01T16:30:02;3.00;;;0.80;;
3949;SDS011;53057;50.988;6.314;2022-07-01T16:32:36;1.70;;;0.80;;
3949;SDS011;53057;50.988;6.314;2022-07-01T16:35:21;2.07;;;1.60;;
3949;SDS011;53057;50.988;6.314;2022-07-01T16:37:52;6.73;;;1.10;;
3949;SDS011;53057;50.988;6.314;2022-07-01T16:40:29;1.03;;;0.60;;
3949;SDS011;53057;50.988;6.314;2022-07-01T16:43:08;1.00;;;0.70;;
3949;SDS011;53057;50.988;6.314;2022-07-01T16:45:40;0.87;;;0.70;;
3949;SDS011;53057;50.988;6.314;2022-07-01T16:48:10;2.20;;;0.80;;
3949;SDS011;53057;50.988;6.314;2022-07-01T16:50:38;2.57;;;1.00;;
3949;SDS011;53057;50.988;6.314;2022-07-01T16:53:14;0.70;;;0.70;;
3949;SDS011;53057;50.988;6.314;2022-07-01T16:55:42;4.83;;;1.13;;
3949;SDS011;53057;50.988;6.314;2022-07-01T16:58:19;2.07;;;1.00;;
3949;SDS011;53057;50.988;6.314;2022-07-01T17:45:57;2.70;;;0.93;;
3949;SDS011;53057;50.988;6.314;2022-07-01T17:59:19;7.77;;;1.20;;
3949;SDS011;53057;50.988;6.314;2022-07-01T18:01:47;4.30;;;1.00;;
3949;SDS011;53057;50.988;6.314;2022-07-01T18:04:27;9.80;;;1.93;;
3949;SDS011;53057;50.988;6.314;2022-07-01T18:06:56;5.43;;;1.00;;